Terminal Aerodrome Forecast
Issued by NWS

Home | Current Version | Previous Version | Text Only | Print | Product List | Glossary On
Versions: 1 2 3 4 5 6 7 8 9 10 11 12 13 14
000
FTUS44 KOUN 060520
TAFCSM
TAF
KCSM 060520Z 0606/0706 15007KT 4SM BR BKN010
     FM060700 35016G24KT 6SM BR BKN010
     FM061200 36019G29KT P6SM BKN150
     FM062200 02011KT P6SM BKN250
     FM070200 08007KT P6SM BKN250=

USA.gov is the U.S. government's official web portal to all federal, state and local government web resources and services.